Time;durP1;ratioP1;P1;durP2;ratioP2;P2;SDS_P1;SDS_P2;PMS_P1;PMS_P2;Temp;Humidity;BMP_temperature;BMP_pressure;BME280_temperature;BME280_humidity;BME280_pressure;Samples;Min_cycle;Max_cycle;Signal;HPM_P1;HPM_P2
2023/07/05 00:00:17;;;;;;;2.97;1.17;;;;;;;22.21;52.62;99547.69;10399553;28;20527;-60
2023/07/05 00:05:20;;;;;;;1.83;1.23;;;;;;;22.14;52.91;99534.16;10399227;28;20266;-61
2023/07/05 00:10:21;;;;;;;1.88;1.30;;;;;;;21.96;52.92;99501.53;10399347;28;20041;-61
2023/07/05 00:15:23;;;;;;;2.75;1.60;;;;;;;22.20;52.62;99536.03;10404610;28;20061;-61
2023/07/05 00:20:24;;;;;;;1.80;1.30;;;;;;;22.09;53.91;99536.69;10402906;28;20045;-58
2023/07/05 00:25:26;;;;;;;1.88;1.35;;;;;;;21.98;54.15;99521.94;10404538;28;20435;-61
2023/07/05 00:30:27;;;;;;;3.97;1.77;;;;;;;21.96;57.73;99563.84;10401526;28;20068;-60
2023/07/05 00:35:28;;;;;;;5.32;1.70;;;;;;;21.80;61.47;99611.19;10413894;28;20527;-60
2023/07/05 00:40:30;;;;;;;3.85;2.45;;;;;;;21.36;65.85;99554.84;10403610;28;20190;-60
2023/07/05 00:45:56;;;;;;;4.90;2.05;;;;;;;21.09;70.98;99547.78;10411500;28;20046;-62
2023/07/05 00:51:01;;;;;;;3.13;2.00;;;;;;;21.09;73.26;99505.34;10398248;28;20346;-60
2023/07/05 00:56:11;;;;;;;3.83;2.42;;;;;;;21.06;72.21;99508.44;10399605;28;20591;-60
2023/07/05 01:01:12;;;;;;;2.30;1.58;;;;;;;20.94;73.62;99502.88;10397730;28;20049;-62
2023/07/05 01:06:14;;;;;;;3.28;1.60;;;;;;;20.82;73.90;99499.09;10398713;28;20332;-62
2023/07/05 01:11:41;;;;;;;3.38;1.80;;;;;;;20.86;73.69;99494.94;10397919;28;20125;-62
2023/07/05 01:17:07;;;;;;;1.90;1.63;;;;;;;20.80;75.26;99485.78;10399138;28;20419;-61
2023/07/05 01:22:17;;;;;;;3.50;2.40;;;;;;;20.79;75.69;99481.44;10394828;28;20044;-60
2023/07/05 01:27:43;;;;;;;3.33;2.15;;;;;;;20.71;76.47;99475.41;10394947;28;20124;-62
2023/07/05 01:32:55;;;;;;;3.75;1.83;;;;;;;20.70;75.94;99473.75;10395990;28;20045;-60
2023/07/05 01:37:57;;;;;;;3.30;1.90;;;;;;;20.63;78.12;99484.53;10391669;28;20060;-61
2023/07/05 01:43:02;;;;;;;2.42;2.20;;;;;;;20.60;77.09;99488.50;10394336;28;20718;-60
2023/07/05 01:48:09;;;;;;;4.68;2.00;;;;;;;20.55;77.59;99511.78;10394865;28;20064;-61
2023/07/05 01:53:59;;;;;;;2.00;1.60;;;;;;;20.57;77.61;99509.72;10410720;28;20191;-61
2023/07/05 01:59:04;;;;;;;3.22;2.17;;;;;;;20.47;77.46;99473.09;10362797;28;20053;-61
2023/07/05 02:04:06;;;;;;;2.40;1.33;;;;;;;20.42;77.41;99483.69;10388814;28;20081;-60
2023/07/05 02:09:08;;;;;;;1.85;1.15;;;;;;;20.32;76.47;99477.84;10390856;28;20057;-61
2023/07/05 02:14:11;;;;;;;3.60;1.45;;;;;;;20.25;77.94;99474.31;10393917;28;20080;-61
2023/07/05 02:19:13;;;;;;;2.03;1.48;;;;;;;20.21;77.84;99486.59;10391592;28;20056;-61
2023/07/05 02:24:14;;;;;;;1.77;1.20;;;;;;;20.02;79.09;99461.19;10390189;28;20099;-62
2023/07/05 02:29:16;;;;;;;3.50;1.38;;;;;;;19.96;79.03;99457.44;10395774;28;20134;-62
2023/07/05 02:34:18;;;;;;;2.22;1.27;;;;;;;19.90;78.41;99458.25;10390300;28;20148;-61
2023/07/05 02:39:19;;;;;;;1.58;1.20;;;;;;;19.98;79.15;99465.31;10390402;28;20061;-59
2023/07/05 02:44:20;;;;;;;1.27;1.05;;;;;;;19.94;78.57;99454.94;10393077;28;20056;-61
2023/07/05 02:49:22;;;;;;;2.40;1.25;;;;;;;19.89;77.92;99448.47;10394089;28;21157;-61
2023/07/05 02:54:23;;;;;;;1.42;0.70;;;;;;;19.86;79.52;99446.19;10395997;28;20254;-60
2023/07/05 02:59:25;;;;;;;1.50;1.08;;;;;;;19.78;79.67;99436.41;10396143;28;20061;-61
2023/07/05 03:04:27;;;;;;;4.15;1.23;;;;;;;19.77;79.81;99430.19;10392347;28;20500;-60
2023/07/05 03:09:29;;;;;;;1.40;1.07;;;;;;;19.78;79.57;99433.69;10392503;28;20079;-61
2023/07/05 03:14:30;;;;;;;2.20;0.73;;;;;;;19.75;79.64;99424.09;10391967;28;20106;-61
2023/07/05 03:19:31;;;;;;;2.45;1.85;;;;;;;19.68;79.72;99406.22;10401882;28;20124;-60
2023/07/05 03:24:33;;;;;;;2.35;1.23;;;;;;;19.72;80.29;99396.69;10401243;28;20042;-60
2023/07/05 03:29:34;;;;;;;2.20;1.13;;;;;;;19.69;80.37;99372.81;10398499;28;20044;-60
2023/07/05 03:34:36;;;;;;;2.03;1.33;;;;;;;19.81;80.78;99397.38;10401749;28;20609;-59
2023/07/05 03:39:38;;;;;;;2.55;1.48;;;;;;;19.74;80.03;99400.84;10400965;28;20059;-61
2023/07/05 03:44:39;;;;;;;2.17;1.20;;;;;;;19.69;80.00;99411.41;10400936;28;20045;-61
2023/07/05 03:49:41;;;;;;;1.50;0.95;;;;;;;19.75;79.89;99425.97;10405002;28;20046;-61
2023/07/05 03:54:42;;;;;;;1.70;1.13;;;;;;;19.39;80.59;99352.38;10405482;28;20135;-65
2023/07/05 03:59:46;;;;;;;1.98;1.20;;;;;;;19.68;80.19;99400.81;10400090;28;20049;-60
2023/07/05 04:04:48;;;;;;;2.40;1.40;;;;;;;19.83;80.02;99416.88;10398706;28;20136;-60
2023/07/05 04:09:49;;;;;;;3.00;1.20;;;;;;;19.80;80.35;99426.22;10398613;28;20132;-62
2023/07/05 04:14:51;;;;;;;1.42;1.20;;;;;;;19.75;80.38;99423.28;10396835;28;20037;-60
2023/07/05 04:19:52;;;;;;;3.20;1.00;;;;;;;19.75;80.13;99413.31;10398011;28;20087;-59
2023/07/05 04:24:54;;;;;;;1.42;1.10;;;;;;;19.70;80.62;99415.78;10397442;28;20136;-61
2023/07/05 04:29:55;;;;;;;2.70;1.13;;;;;;;19.64;81.35;99416.63;10389934;28;20118;-61
2023/07/05 04:34:57;;;;;;;1.52;1.20;;;;;;;19.51;82.21;99414.69;10396464;28;20057;-61
2023/07/05 04:39:58;;;;;;;2.03;1.33;;;;;;;19.58;81.82;99420.13;10400657;28;20442;-60
2023/07/05 04:45:02;;;;;;;3.45;1.52;;;;;;;19.48;82.57;99427.78;10401571;28;20041;-61
2023/07/05 04:50:04;;;;;;;3.97;1.77;;;;;;;19.41;81.81;99404.28;10398440;28;20200;-62
2023/07/05 04:55:06;;;;;;;2.35;1.27;;;;;;;19.47;82.66;99416.16;10399333;28;20162;-60
2023/07/05 05:00:09;;;;;;;3.35;1.52;;;;;;;19.45;82.82;99414.69;10389456;28;20055;-60
2023/07/05 05:05:10;;;;;;;2.83;1.00;;;;;;;19.51;82.91;99438.16;10395203;28;20060;-60
2023/07/05 05:10:12;;;;;;;3.17;1.27;;;;;;;19.49;83.12;99424.88;10373274;28;20048;-61
2023/07/05 05:15:13;;;;;;;3.28;1.52;;;;;;;19.55;83.47;99450.22;10398806;28;20050;-63
2023/07/05 05:20:15;;;;;;;2.40;1.73;;;;;;;19.46;83.08;99449.56;10382551;28;20437;-64
2023/07/05 05:25:16;;;;;;;2.35;1.45;;;;;;;19.47;82.72;99447.69;10384833;28;20194;-62
2023/07/05 05:30:18;;;;;;;3.25;1.85;;;;;;;19.43;83.59;99464.28;10387463;28;20889;-65
2023/07/05 05:35:20;;;;;;;1.75;1.30;;;;;;;19.51;82.43;99462.44;10381567;28;20139;-67
2023/07/05 05:40:22;;;;;;;3.00;1.58;;;;;;;19.56;80.56;99478.84;10372042;28;20049;-63
2023/07/05 05:45:23;;;;;;;2.28;1.02;;;;;;;19.55;79.25;99485.31;10377202;28;20041;-63
2023/07/05 05:50:25;;;;;;;3.35;1.60;;;;;;;19.52;81.29;99491.94;10380293;28;20492;-64
2023/07/05 05:55:26;;;;;;;1.90;1.52;;;;;;;19.33;82.94;99474.59;10377486;28;20242;-64
2023/07/05 06:00:28;;;;;;;3.22;2.67;;;;;;;19.41;83.88;99482.53;10378616;28;20045;-63
2023/07/05 06:05:31;;;;;;;3.22;1.45;;;;;;;19.60;82.49;99501.72;10380620;28;20045;-63
2023/07/05 06:10:33;;;;;;;4.05;1.55;;;;;;;19.54;76.73;99526.81;10378854;28;20757;-63
2023/07/05 06:15:35;;;;;;;2.33;1.45;;;;;;;19.55;71.15;99517.69;10382436;28;20052;-64
2023/07/05 06:20:36;;;;;;;7.38;1.90;;;;;;;19.65;68.70;99523.56;10366755;28;20069;-62
2023/07/05 06:26:28;;;;;;;1.95;1.38;;;;;;;19.74;64.19;99549.34;11119246;22;20664;-62
2023/07/05 06:31:33;;;;;;;2.33;1.85;;;;;;;19.73;64.10;99554.97;10310289;28;20076;-62
2023/07/05 06:36:34;;;;;;;3.13;1.85;;;;;;;19.60;62.14;99551.13;10330147;28;20049;-62
2023/07/05 06:41:36;;;;;;;3.67;1.98;;;;;;;19.74;60.79;99562.00;10335485;28;20114;-63
2023/07/05 06:46:37;;;;;;;2.58;1.88;;;;;;;19.84;60.45;99564.38;10330425;28;20076;-63
2023/07/05 06:51:39;;;;;;;3.65;2.05;;;;;;;19.94;58.60;99586.44;10330215;28;20060;-62
2023/07/05 06:56:41;;;;;;;3.30;2.30;;;;;;;19.76;57.47;99571.59;10341157;28;20057;-64
2023/07/05 07:01:43;;;;;;;4.57;2.55;;;;;;;19.71;56.63;99584.00;10343074;28;20056;-62
2023/07/05 07:06:44;;;;;;;3.30;2.70;;;;;;;19.84;57.54;99604.88;10339422;28;20080;-63
2023/07/05 07:11:46;;;;;;;3.70;2.08;;;;;;;19.90;52.61;99609.50;10345755;28;20539;-64
2023/07/05 07:16:47;;;;;;;5.00;3.35;;;;;;;19.94;49.93;99629.66;10341537;28;20057;-64
2023/07/05 07:21:49;;;;;;;5.03;2.83;;;;;;;19.77;48.90;99643.50;10338386;28;20130;-62
2023/07/05 07:26:51;;;;;;;3.13;2.83;;;;;;;19.58;50.45;99660.38;10342491;28;20057;-63
2023/07/05 07:31:52;;;;;;;5.93;2.75;;;;;;;19.71;49.27;99673.97;10341185;28;20057;-62
2023/07/05 07:36:54;;;;;;;6.07;2.80;;;;;;;19.73;47.25;99669.19;10345887;28;20060;-62
2023/07/05 07:41:56;;;;;;;5.30;2.67;;;;;;;19.62;46.34;99672.41;10343361;28;20130;-63
2023/07/05 07:46:58;;;;;;;4.63;2.28;;;;;;;19.52;47.85;99683.56;10343318;28;20747;-65
2023/07/05 07:52:00;;;;;;;4.47;2.73;;;;;;;19.57;49.30;99694.59;10344075;28;20148;-63
2023/07/05 07:57:01;;;;;;;4.45;2.47;;;;;;;19.66;48.02;99700.69;10341666;28;20053;-62
2023/07/05 08:02:06;;;;;;;4.78;3.00;;;;;;;19.82;48.32;99725.78;10347050;28;20419;-63
2023/07/05 08:07:08;;;;;;;3.70;2.17;;;;;;;19.58;46.93;99715.19;10347940;28;20053;-63
2023/07/05 08:12:09;;;;;;;3.58;2.45;;;;;;;19.81;46.21;99726.81;10349262;28;20050;-62
2023/07/05 08:17:11;;;;;;;3.03;2.67;;;;;;;19.83;46.31;99716.63;10343491;28;20072;-62
2023/07/05 08:22:12;;;;;;;3.60;2.03;;;;;;;19.86;45.74;99729.72;10342765;28;20049;-62
2023/07/05 08:27:14;;;;;;;3.05;1.77;;;;;;;19.88;45.52;99754.69;10344099;28;20120;-63
2023/07/05 08:32:15;;;;;;;4.03;1.90;;;;;;;20.17;45.39;99747.41;10346255;28;20061;-63
2023/07/05 08:37:17;;;;;;;4.63;2.08;;;;;;;20.36;43.91;99760.19;10345842;28;20053;-62
2023/07/05 08:42:33;;;;;;;4.00;1.75;;;;;;;20.36;43.80;99762.91;10347944;28;20058;-62
2023/07/05 08:47:52;;;;;;;3.90;1.70;;;;;;;20.30;42.29;99777.22;10357276;28;20049;-63
2023/07/05 08:53:02;;;;;;;5.57;1.50;;;;;;;20.27;41.54;99756.81;10346478;28;21302;-63
2023/07/05 08:58:07;;;;;;;3.03;1.70;;;;;;;20.39;42.82;99776.00;10338180;28;20898;-64
2023/07/05 09:03:10;;;;;;;2.78;1.48;;;;;;;20.77;41.65;99782.88;10338160;28;20049;-64
2023/07/05 09:08:21;;;;;;;2.28;1.83;;;;;;;20.61;40.84;99800.25;10339358;28;20137;-63
2023/07/05 09:13:38;;;;;;;2.25;1.33;;;;;;;20.58;41.03;99816.88;10344202;28;20053;-63
2023/07/05 09:18:57;;;;;;;1.83;1.00;;;;;;;20.60;40.58;99804.81;10339555;28;20125;-63
2023/07/05 09:24:26;;;;;;;2.05;1.02;;;;;;;20.71;40.85;99808.84;10334567;28;20068;-63
2023/07/05 09:29:50;;;;;;;2.65;1.20;;;;;;;20.60;40.72;99814.81;10340750;28;20062;-62
2023/07/05 09:34:58;;;;;;;2.67;1.20;;;;;;;20.65;40.77;99823.16;10344723;28;20479;-64
2023/07/05 09:40:17;;;;;;;4.25;1.10;;;;;;;20.52;41.07;99832.00;10336426;28;20754;-63
2023/07/05 09:45:21;;;;;;;3.40;1.02;;;;;;;20.37;41.60;99815.94;10337192;28;20416;-62
2023/07/05 09:50:23;;;;;;;1.70;0.77;;;;;;;20.67;41.69;99848.13;10344904;28;20050;-63
2023/07/05 09:55:27;;;;;;;3.10;0.93;;;;;;;20.63;40.89;99827.94;10339875;28;20231;-62
2023/07/05 10:00:33;;;;;;;3.58;1.25;;;;;;;20.84;40.46;99845.97;10337660;28;20049;-63
2023/07/05 10:05:35;;;;;;;3.22;1.25;;;;;;;20.98;40.34;99842.25;10342062;28;20403;-62
2023/07/05 10:10:40;;;;;;;1.88;0.80;;;;;;;20.97;39.96;99843.31;10336774;28;20068;-62
2023/07/05 10:15:44;;;;;;;1.20;0.70;;;;;;;20.89;40.46;99861.59;10338254;28;20103;-62
2023/07/05 10:20:47;;;;;;;2.00;0.80;;;;;;;20.94;41.30;99856.38;10337254;28;20053;-63
2023/07/05 10:25:51;;;;;;;2.20;0.80;;;;;;;21.12;39.93;99870.22;10336664;28;20092;-63
2023/07/05 10:31:00;;;;;;;2.05;0.93;;;;;;;21.26;39.49;99862.13;10334669;28;20060;-63
2023/07/05 10:36:24;;;;;;;2.10;0.77;;;;;;;21.16;39.10;99863.34;10342725;28;20057;-63
2023/07/05 10:41:34;;;;;;;1.15;0.82;;;;;;;21.27;38.91;99870.06;10334454;28;20045;-63
2023/07/05 10:46:37;;;;;;;3.60;0.90;;;;;;;21.55;39.45;99874.56;10338135;28;20054;-62
2023/07/05 10:51:43;;;;;;;3.88;1.27;;;;;;;21.93;38.93;99870.44;10341125;28;20140;-63
2023/07/05 10:56:47;;;;;;;3.17;0.77;;;;;;;22.00;37.45;99884.84;10336937;28;20050;-62
2023/07/05 11:02:01;;;;;;;2.00;0.88;;;;;;;21.87;37.41;99881.06;10337690;28;20132;-62
2023/07/05 11:07:10;;;;;;;2.47;0.70;;;;;;;21.79;37.97;99878.56;10335288;28;20136;-61
2023/07/05 11:12:20;;;;;;;1.10;0.70;;;;;;;22.01;37.27;99870.25;10337696;28;20053;-63
2023/07/05 11:17:32;;;;;;;3.95;0.70;;;;;;;21.96;36.78;99868.13;10339081;28;20061;-63
2023/07/05 11:22:39;;;;;;;2.00;1.08;;;;;;;22.01;36.77;99881.09;10334408;28;20111;-63
2023/07/05 11:27:53;;;;;;;4.38;0.80;;;;;;;21.79;37.78;99872.31;10334831;28;20057;-63
2023/07/05 11:33:03;;;;;;;4.28;0.82;;;;;;;21.77;37.23;99880.63;10347428;28;20053;-63
2023/07/05 11:38:06;;;;;;;1.15;0.80;;;;;;;22.05;36.54;99890.44;10337398;28;20513;-62
2023/07/05 11:43:36;;;;;;;2.88;0.73;;;;;;;22.03;36.91;99879.81;10337576;28;20045;-62
2023/07/05 11:48:41;;;;;;;2.67;0.70;;;;;;;22.04;36.80;99892.34;10355138;28;20068;-64
2023/07/05 11:53:45;;;;;;;2.30;0.70;;;;;;;22.01;37.01;99875.66;10356885;28;20107;-60
2023/07/05 11:58:50;;;;;;;1.95;0.80;;;;;;;22.11;36.80;99905.06;10343503;28;20506;-65
2023/07/05 12:03:58;;;;;;;2.20;0.70;;;;;;;22.33;37.08;99905.72;10343566;28;20092;-64
2023/07/05 12:09:03;;;;;;;2.83;0.88;;;;;;;22.46;34.70;99896.72;10342905;28;20470;-63
2023/07/05 12:14:09;;;;;;;2.15;1.00;;;;;;;22.75;35.43;99906.28;10343561;28;20053;-62
2023/07/05 12:19:30;;;;;;;1.95;0.68;;;;;;;23.05;33.74;99905.78;10344230;28;20057;-63
2023/07/05 12:24:41;;;;;;;2.45;0.80;;;;;;;23.19;35.25;99926.44;10340376;28;20514;-63
2023/07/05 12:29:43;;;;;;;3.63;1.35;;;;;;;23.15;33.63;99897.22;10343114;28;20232;-62
2023/07/05 12:34:45;;;;;;;1.83;0.90;;;;;;;23.15;34.21;99905.34;10345186;28;20053;-63
2023/07/05 12:39:46;;;;;;;2.20;0.90;;;;;;;23.23;34.66;99892.38;10342425;28;20739;-63
2023/07/05 12:44:48;;;;;;;2.50;1.00;;;;;;;23.40;33.07;99910.91;10341712;28;20061;-63
2023/07/05 12:50:02;;;;;;;3.17;1.17;;;;;;;23.09;33.93;99877.19;10342318;28;20802;-65
2023/07/05 12:55:22;;;;;;;2.70;0.80;;;;;;;23.12;33.92;99898.50;10345476;28;20064;-63
2023/07/05 13:00:23;;;;;;;2.78;1.00;;;;;;;22.96;34.08;99897.06;10344207;28;20057;-63
2023/07/05 13:05:25;;;;;;;3.58;1.17;;;;;;;23.06;34.47;99893.88;10342774;28;20068;-63
2023/07/05 13:10:27;;;;;;;2.28;1.08;;;;;;;23.32;34.62;99900.31;10344989;28;20049;-62
2023/07/05 13:15:36;;;;;;;2.53;1.02;;;;;;;23.32;34.19;99890.25;10342086;28;20057;-62
2023/07/05 13:20:37;;;;;;;1.77;0.98;;;;;;;23.32;33.45;99897.59;10345624;28;20058;-62
2023/07/05 13:25:44;;;;;;;2.78;1.40;;;;;;;23.27;33.68;99890.09;10340061;28;20158;-62
2023/07/05 13:30:58;;;;;;;4.63;1.38;;;;;;;23.39;33.81;99904.66;10348589;28;20049;-63
2023/07/05 13:36:35;;;;;;;3.25;1.35;;;;;;;23.40;33.94;99883.75;10338729;28;20076;-62
2023/07/05 13:41:36;;;;;;;3.42;1.60;;;;;;;23.24;34.20;99894.06;10336462;28;20060;-62
2023/07/05 13:46:38;;;;;;;4.40;1.77;;;;;;;23.15;35.05;99892.63;10354392;28;20207;-62
2023/07/05 13:51:52;;;;;;;4.60;2.03;;;;;;;23.27;34.40;99906.38;10343428;28;20045;-61
2023/07/05 13:56:56;;;;;;;1.85;1.35;;;;;;;23.25;32.53;99895.69;10340279;28;20049;-62
2023/07/05 14:01:58;;;;;;;2.42;1.27;;;;;;;23.43;33.84;99907.75;10336997;28;20064;-62
2023/07/05 14:07:00;;;;;;;1.67;1.23;;;;;;;23.30;33.00;99906.78;10336688;28;20136;-63
2023/07/05 14:12:01;;;;;;;2.05;0.88;;;;;;;23.06;33.67;99899.31;10339698;28;20053;-63
2023/07/05 14:17:03;;;;;;;1.92;1.15;;;;;;;23.09;33.38;99907.91;10345507;28;20057;-64
2023/07/05 14:22:04;;;;;;;2.47;1.40;;;;;;;23.06;33.45;99893.88;10345778;28;20588;-63
2023/07/05 14:27:14;;;;;;;3.42;1.50;;;;;;;23.02;32.98;99885.34;10338802;28;20142;-65
2023/07/05 14:32:16;;;;;;;3.35;1.00;;;;;;;23.32;32.53;99897.59;10339072;28;20064;-63
2023/07/05 14:37:17;;;;;;;3.15;1.80;;;;;;;23.19;33.20;99910.16;10338625;28;20045;-63
2023/07/05 14:42:19;;;;;;;3.83;1.63;;;;;;;23.01;33.16;99891.81;10342207;28;20057;-64
2023/07/05 14:47:20;;;;;;;4.22;1.60;;;;;;;23.09;33.67;99888.03;10336603;28;20137;-62
2023/07/05 14:52:22;;;;;;;3.00;1.33;;;;;;;23.28;33.55;99908.03;10327999;28;20041;-65
2023/07/05 14:57:24;;;;;;;3.38;1.52;;;;;;;23.17;33.40;99889.72;10336356;28;20459;-61
2023/07/05 15:02:26;;;;;;;3.28;1.60;;;;;;;23.16;33.15;99910.56;10331741;28;20057;-61
2023/07/05 15:07:27;;;;;;;2.47;1.50;;;;;;;23.10;33.00;99908.72;10335081;28;25065;-60
2023/07/05 15:12:29;;;;;;;3.88;1.30;;;;;;;22.95;33.66;99896.22;10336007;28;20064;-61
2023/07/05 15:17:30;;;;;;;4.97;1.67;;;;;;;22.98;34.25;99910.41;10340208;28;20104;-62
2023/07/05 15:22:32;;;;;;;2.75;1.30;;;;;;;23.15;33.81;99914.34;10338682;28;20053;-61
2023/07/05 15:27:33;;;;;;;3.67;1.20;;;;;;;23.01;33.90;99880.94;10343061;28;20054;-62
2023/07/05 15:32:38;;;;;;;2.33;1.20;;;;;;;23.18;33.84;99913.94;10340657;28;20058;-60
2023/07/05 15:37:39;;;;;;;3.05;1.20;;;;;;;23.01;33.75;99912.69;10341802;28;20045;-64
2023/07/05 15:42:50;;;;;;;3.33;1.40;;;;;;;23.11;34.38;99907.69;10340196;28;20080;-62
2023/07/05 15:47:53;;;;;;;3.58;1.20;;;;;;;23.22;34.46;99920.56;10344818;28;20054;-62
2023/07/05 15:52:55;;;;;;;3.72;1.40;;;;;;;23.17;34.05;99914.97;10343792;28;20217;-62
2023/07/05 15:58:03;;;;;;;2.85;1.40;;;;;;;23.02;34.23;99908.94;10344200;28;20053;-61
2023/07/05 16:03:05;;;;;;;2.95;1.25;;;;;;;23.06;34.13;99913.72;10346111;28;20068;-62
2023/07/05 16:08:11;;;;;;;2.97;1.30;;;;;;;23.12;34.45;99914.78;10342084;28;20575;-62
2023/07/05 16:13:13;;;;;;;4.18;1.45;;;;;;;23.28;34.17;99916.16;10342300;28;20866;-61
2023/07/05 16:18:15;;;;;;;2.10;1.40;;;;;;;23.10;34.57;99925.00;10347276;28;20054;-63
2023/07/05 16:23:16;;;;;;;2.72;1.30;;;;;;;23.10;33.85;99916.88;10344458;28;20166;-62
2023/07/05 16:28:19;;;;;;;6.50;1.43;;;;;;;22.95;34.51;99917.09;10340393;28;20041;-62
2023/07/05 16:33:20;;;;;;;3.33;1.23;;;;;;;23.05;34.64;99924.78;10341478;28;20062;-63
2023/07/05 16:38:23;;;;;;;2.92;1.55;;;;;;;23.09;34.69;99921.47;10342521;28;20053;-61
2023/07/05 16:43:25;;;;;;;2.83;1.60;;;;;;;23.07;34.53;99922.69;10344732;28;20059;-62
2023/07/05 16:48:27;;;;;;;4.03;1.63;;;;;;;22.98;34.10;99930.22;10341007;28;20286;-62
2023/07/05 16:53:29;;;;;;;4.28;2.03;;;;;;;22.89;34.49;99924.19;10337450;28;20136;-62
2023/07/05 16:58:31;;;;;;;3.58;1.40;;;;;;;22.73;34.97;99911.09;10342068;28;20041;-62
2023/07/05 17:03:35;;;;;;;5.32;1.33;;;;;;;22.90;35.00;99927.75;10336502;28;20060;-62
2023/07/05 17:08:38;;;;;;;4.82;2.28;;;;;;;22.91;34.53;99926.72;10343913;28;20110;-62
2023/07/05 17:13:40;;;;;;;2.70;1.50;;;;;;;22.85;34.95;99928.41;10336533;28;20064;-64
2023/07/05 17:18:42;;;;;;;3.47;2.08;;;;;;;22.78;35.18;99933.81;10343432;28;20068;-61
2023/07/05 17:23:43;;;;;;;4.65;1.83;;;;;;;22.71;35.03;99940.31;10331911;28;20061;-61
2023/07/05 17:28:46;;;;;;;3.88;1.58;;;;;;;22.66;35.34;99942.81;10334655;28;20053;-61
2023/07/05 17:33:48;;;;;;;5.85;1.70;;;;;;;22.65;35.27;99957.44;10335795;28;20572;-61
2023/07/05 17:38:51;;;;;;;2.58;1.58;;;;;;;22.53;35.33;99957.22;10340188;28;20651;-61
2023/07/05 17:43:53;;;;;;;4.47;1.63;;;;;;;22.34;35.47;99967.00;10335236;28;20154;-62
2023/07/05 17:48:56;;;;;;;5.90;1.77;;;;;;;22.28;35.85;99967.81;10337850;28;20065;-62
2023/07/05 17:53:58;;;;;;;3.33;1.48;;;;;;;22.25;35.99;99956.34;10337623;28;20172;-63
2023/07/05 17:59:00;;;;;;;3.80;2.03;;;;;;;22.27;36.09;99972.41;10341169;28;20054;-63
2023/07/05 18:04:01;;;;;;;2.60;1.70;;;;;;;22.17;36.31;99956.56;10339072;28;20218;-63
2023/07/05 18:09:03;;;;;;;2.88;1.70;;;;;;;22.33;36.26;99978.91;10343700;28;20069;-63
2023/07/05 18:14:05;;;;;;;2.67;2.07;;;;;;;22.36;36.21;99986.63;10340043;28;20052;-63
2023/07/05 18:19:07;;;;;;;3.03;1.42;;;;;;;22.24;36.41;99995.34;10335502;28;20053;-62
2023/07/05 18:24:09;;;;;;;2.45;1.63;;;;;;;22.29;36.67;99997.44;10335728;28;20550;-61
2023/07/05 18:29:10;;;;;;;3.17;1.85;;;;;;;22.17;37.00;100010.78;10332769;28;20683;-62
2023/07/05 18:34:12;;;;;;;4.38;1.60;;;;;;;22.18;37.12;100006.19;10338664;28;20057;-62
2023/07/05 18:39:14;;;;;;;4.43;1.40;;;;;;;21.79;37.15;99948.97;10343674;28;20115;-62
2023/07/05 18:44:16;;;;;;;4.72;1.85;;;;;;;22.05;37.74;100009.69;10340544;28;20156;-62
2023/07/05 18:49:17;;;;;;;4.15;1.95;;;;;;;21.91;38.08;100022.38;10339725;28;20653;-60
2023/07/05 18:54:21;;;;;;;5.85;2.10;;;;;;;21.95;38.26;100025.50;10351040;28;20053;-61
2023/07/05 18:59:23;;;;;;;3.30;1.30;;;;;;;21.87;37.84;100012.97;10350488;28;21293;-61
2023/07/05 19:04:24;;;;;;;4.68;1.90;;;;;;;21.88;38.42;100031.72;10345940;28;20523;-61
2023/07/05 19:09:26;;;;;;;3.03;1.40;;;;;;;21.73;38.64;100041.91;10349081;28;20064;-61
2023/07/05 19:14:27;;;;;;;3.03;1.58;;;;;;;21.51;39.31;100047.44;10343428;28;20060;-62
2023/07/05 19:19:29;;;;;;;2.42;1.20;;;;;;;21.62;40.51;100047.88;10344073;28;20440;-62
2023/07/05 19:24:31;;;;;;;4.78;1.73;;;;;;;21.47;40.06;100048.81;10338949;28;20057;-61
2023/07/05 19:29:33;;;;;;;3.88;1.58;;;;;;;21.35;40.81;100066.69;10352801;28;20787;-61
2023/07/05 19:34:34;;;;;;;6.22;2.03;;;;;;;20.91;41.45;100035.34;10350743;28;21559;-61
2023/07/05 19:39:36;;;;;;;3.70;1.92;;;;;;;21.16;41.89;100085.28;10355736;28;21495;-62
2023/07/05 19:44:38;;;;;;;3.72;1.52;;;;;;;21.24;41.27;100072.63;10354356;28;20054;-62
2023/07/05 19:49:39;;;;;;;4.22;2.33;;;;;;;21.11;42.00;100093.16;10355711;28;20428;-62
2023/07/05 19:54:41;;;;;;;3.88;1.52;;;;;;;21.21;41.65;100091.97;10359064;28;20236;-61
2023/07/05 19:59:42;;;;;;;2.65;1.45;;;;;;;21.30;41.17;100101.59;10348674;28;20141;-62
2023/07/05 20:04:43;;;;;;;1.80;1.08;;;;;;;20.99;41.56;100111.78;10352550;28;20049;-62
2023/07/05 20:09:45;;;;;;;3.03;1.25;;;;;;;20.77;42.36;100112.84;10356591;28;20423;-61
2023/07/05 20:14:48;;;;;;;2.55;0.98;;;;;;;20.61;42.84;100094.97;10348225;28;20068;-62
2023/07/05 20:19:49;;;;;;;2.93;1.10;;;;;;;20.43;43.05;100085.47;10348797;28;20053;-62
2023/07/05 20:24:51;;;;;;;2.58;1.48;;;;;;;20.65;43.99;100115.19;10352895;28;20060;-62
2023/07/05 20:29:53;;;;;;;2.97;1.35;;;;;;;20.93;43.42;100122.56;10354864;28;20061;-62
2023/07/05 20:34:54;;;;;;;1.70;0.90;;;;;;;20.87;44.06;100123.31;10352414;28;20502;-63
2023/07/05 20:39:56;;;;;;;1.40;0.80;;;;;;;20.72;43.95;100132.34;10359092;28;20336;-61
2023/07/05 20:44:58;;;;;;;2.10;1.00;;;;;;;20.67;44.03;100134.78;10355011;28;20053;-62
2023/07/05 20:49:59;;;;;;;2.15;1.27;;;;;;;20.55;44.02;100130.88;10356290;28;20053;-63
2023/07/05 20:55:00;;;;;;;1.95;0.80;;;;;;;20.64;44.33;100136.00;10351298;28;20061;-63
2023/07/05 21:00:04;;;;;;;2.53;0.63;;;;;;;20.71;43.62;100148.78;10355478;28;20049;-63
2023/07/05 21:05:06;;;;;;;;;;;;;;;20.72;43.91;100148.59;10350804;28;20091;-63
2023/07/05 21:10:08;;;;;;;2.70;0.93;;;;;;;20.75;43.87;100148.19;10358058;28;19925;-62
2023/07/05 21:15:10;;;;;;;3.08;0.77;;;;;;;20.74;43.66;100157.34;10353949;28;20229;-63
2023/07/05 21:20:11;;;;;;;3.53;1.00;;;;;;;20.66;44.19;100154.75;10362360;28;20465;-67
2023/07/05 21:25:13;;;;;;;2.25;0.73;;;;;;;20.70;44.37;100160.63;10357699;28;20383;-63
2023/07/05 21:30:14;;;;;;;2.10;1.23;;;;;;;20.70;44.58;100161.44;10354820;28;20192;-62
2023/07/05 21:35:17;;;;;;;4.45;1.17;;;;;;;20.70;44.74;100166.84;10349831;28;20115;-62
2023/07/05 21:40:20;;;;;;;1.90;1.03;;;;;;;20.72;45.08;100164.00;10348582;28;21737;-62
2023/07/05 21:45:23;;;;;;;2.63;1.10;;;;;;;20.63;45.04;100149.72;10353218;28;20344;-63
2023/07/05 21:50:25;;;;;;;3.00;1.20;;;;;;;20.64;44.87;100164.88;10352100;28;20782;-64
2023/07/05 21:55:27;;;;;;;2.35;0.93;;;;;;;20.59;44.81;100159.22;10347266;28;20557;-63
2023/07/05 22:00:29;;;;;;;4.18;1.20;;;;;;;20.58;45.40;100169.22;10353757;28;21798;-65
2023/07/05 22:05:31;;;;;;;2.00;0.90;;;;;;;20.58;45.88;100162.94;10349561;28;20049;-65
2023/07/05 22:10:34;;;;;;;4.35;1.92;;;;;;;20.56;45.60;100165.84;10355009;28;20214;-63
2023/07/05 22:15:35;;;;;;;2.60;1.27;;;;;;;20.51;45.40;100160.19;10341016;28;20581;-61
2023/07/05 22:20:41;;;;;;;2.92;0.90;;;;;;;20.55;46.13;100168.75;10342334;28;20125;-61
2023/07/05 22:25:42;;;;;;;2.95;1.00;;;;;;;20.46;46.17;100159.91;10334678;28;20041;-63
2023/07/05 22:30:44;;;;;;;2.08;0.88;;;;;;;20.48;45.24;100160.56;10341133;28;20061;-62
2023/07/05 22:35:49;;;;;;;3.95;1.10;;;;;;;20.54;45.74;100173.31;10334924;28;20736;-62
2023/07/05 22:40:51;;;;;;;5.60;1.33;;;;;;;20.47;46.53;100184.03;10340929;28;20077;-61
2023/07/05 22:46:00;;;;;;;2.00;1.13;;;;;;;20.42;46.24;100178.38;10340448;28;20215;-62
2023/07/05 22:51:03;;;;;;;1.95;1.02;;;;;;;20.30;46.57;100166.41;10335682;28;20156;-62
2023/07/05 22:56:05;;;;;;;3.30;1.00;;;;;;;20.31;46.55;100170.75;10340007;28;20064;-63
2023/07/05 23:01:06;;;;;;;2.10;1.13;;;;;;;20.27;46.51;100172.19;10343337;28;20041;-62
2023/07/05 23:06:10;;;;;;;2.20;0.82;;;;;;;20.28;46.98;100198.16;10346706;28;20139;-62
2023/07/05 23:11:12;;;;;;;;;;;;;;;20.23;47.16;100189.78;10348881;28;20065;-63
2023/07/05 23:16:18;;;;;;;2.88;1.20;;;;;;;20.20;47.02;100199.09;10353863;28;19976;-61
2023/07/05 23:21:21;;;;;;;1.58;1.08;;;;;;;20.18;47.26;100200.34;10347611;28;20060;-64
2023/07/05 23:26:24;;;;;;;2.90;1.20;;;;;;;20.04;47.40;100178.53;10346381;28;20128;-64
2023/07/05 23:31:30;;;;;;;2.53;1.75;;;;;;;20.06;47.46;100200.78;10345088;28;20061;-63